Time;durP1;ratioP1;P1;durP2;ratioP2;P2;SDS_P1;SDS_P2;PMS_P1;PMS_P2;Temp;Humidity;BMP_temperature;BMP_pressure;BME280_temperature;BME280_humidity;BME280_pressure;Samples;Min_cycle;Max_cycle;Signal;HPM_P1;HPM_P2
2023/10/20 00:01:42;;;;;;;8.27;5.35;;;;;;;;;;5059093;28;20055;-81
2023/10/20 00:04:09;;;;;;;7.30;6.50;;;;;;;;;;5043620;28;20603;-81
2023/10/20 00:06:38;;;;;;;5.07;4.35;;;;;;;;;;5057694;28;20045;-81
2023/10/20 00:09:06;;;;;;;9.05;6.10;;;;;;;;;;5058134;28;20052;-81
2023/10/20 00:11:38;;;;;;;6.60;5.90;;;;;;;;;;5040764;28;20041;-81
2023/10/20 00:14:06;;;;;;;6.38;5.78;;;;;;;;;;5055936;28;20052;-81
2023/10/20 00:16:37;;;;;;;7.43;5.07;;;;;;;;;;5055141;28;20051;-81
2023/10/20 00:19:04;;;;;;;8.45;5.10;;;;;;;;;;5060786;28;20060;-81
2023/10/20 00:21:35;;;;;;;7.05;6.00;;;;;;;;;;5045914;28;20102;-81
2023/10/20 00:24:08;;;;;;;9.95;6.00;;;;;;;;;;5058077;28;20416;-81
2023/10/20 00:26:37;;;;;;;5.88;4.85;;;;;;;;;;5056811;28;20032;-81
2023/10/20 00:29:05;;;;;;;5.85;5.00;;;;;;;;;;5059066;28;20056;-81
2023/10/20 00:31:33;;;;;;;6.10;5.50;;;;;;;;;;5063014;28;20049;-81
2023/10/20 00:34:01;;;;;;;6.00;5.13;;;;;;;;;;5048814;28;20406;-81
2023/10/20 00:36:29;;;;;;;9.25;5.60;;;;;;;;;;5060199;28;20085;-81
2023/10/20 00:38:58;;;;;;;5.07;4.57;;;;;;;;;;5039451;28;20052;-81
2023/10/20 00:41:28;;;;;;;6.07;5.45;;;;;;;;;;5043012;28;20056;-81
2023/10/20 00:43:55;;;;;;;5.68;4.97;;;;;;;;;;5037228;28;20049;-81
2023/10/20 00:46:23;;;;;;;5.47;4.28;;;;;;;;;;5062024;28;20419;-81
2023/10/20 00:48:52;;;;;;;4.53;4.13;;;;;;;;;;5046909;28;20041;-81
2023/10/20 00:51:21;;;;;;;4.82;4.43;;;;;;;;;;5062834;28;20069;-82
2023/10/20 00:53:48;;;;;;;5.22;4.53;;;;;;;;;;5037480;28;20041;-82
2023/10/20 00:56:15;;;;;;;5.70;5.13;;;;;;;;;;5043724;28;20060;-81
2023/10/20 00:58:43;;;;;;;11.82;4.47;;;;;;;;;;5063185;28;20076;-81
2023/10/20 01:01:13;;;;;;;7.28;5.32;;;;;;;;;;5045772;28;20067;-81
2023/10/20 01:03:40;;;;;;;5.55;5.05;;;;;;;;;;5045476;28;20049;-81
2023/10/20 01:06:08;;;;;;;6.18;5.45;;;;;;;;;;5049282;22;20049;-82
2023/10/20 01:08:36;;;;;;;6.05;4.95;;;;;;;;;;5029339;28;20633;-82
2023/10/20 01:11:04;;;;;;;4.95;4.43;;;;;;;;;;5020618;28;20053;-82
2023/10/20 01:13:32;;;;;;;5.80;5.00;;;;;;;;;;5014049;28;20522;-82
2023/10/20 01:16:02;;;;;;;6.57;5.05;;;;;;;;;;5010510;28;20053;-82
2023/10/20 01:18:30;;;;;;;5.70;5.03;;;;;;;;;;5028872;28;20426;-82
2023/10/20 01:20:58;;;;;;;8.50;4.35;;;;;;;;;;5014588;28;20057;-82
2023/10/20 01:23:27;;;;;;;5.28;4.78;;;;;;;;;;5028386;28;20484;-82
2023/10/20 01:25:58;;;;;;;5.72;5.07;;;;;;;;;;5022520;28;20046;-82
2023/10/20 01:28:26;;;;;;;6.18;5.07;;;;;;;;;;5031248;28;20041;-82
2023/10/20 01:30:53;;;;;;;5.18;3.67;;;;;;;;;;5012343;28;20049;-82
2023/10/20 01:33:20;;;;;;;5.25;4.60;;;;;;;;;;5031306;28;20052;-82
2023/10/20 01:35:47;;;;;;;6.00;4.78;;;;;;;;;;5017099;28;20046;-82
2023/10/20 01:38:17;;;;;;;6.05;5.05;;;;;;;;;;5011369;28;20057;-82
2023/10/20 01:40:45;;;;;;;5.50;4.18;;;;;;;;;;5037164;28;20053;-82
2023/10/20 01:43:16;;;;;;;4.85;3.97;;;;;;;;;;5013834;28;20053;-82
2023/10/20 01:45:46;;;;;;;6.95;4.50;;;;;;;;;;5021557;28;20049;-82
2023/10/20 01:48:13;;;;;;;7.53;5.13;;;;;;;;;;5012501;28;20376;-82
2023/10/20 01:50:40;;;;;;;6.50;4.72;;;;;;;;;;5010299;28;20049;-83
2023/10/20 01:53:08;;;;;;;5.28;4.75;;;;;;;;;;5010092;28;21613;-82
2023/10/20 01:55:39;;;;;;;5.78;5.18;;;;;;;;;;5021301;28;20046;-82
2023/10/20 01:58:07;;;;;;;6.55;4.60;;;;;;;;;;5024434;28;20080;-82
2023/10/20 02:00:38;;;;;;;10.50;5.18;;;;;;;;;;5033667;28;20049;-82
2023/10/20 02:03:05;;;;;;;4.93;4.45;;;;;;;;;;5015273;28;20049;-82
2023/10/20 02:05:32;;;;;;;5.38;4.50;;;;;;;;;;5018153;28;20693;-82
2023/10/20 02:08:00;;;;;;;4.97;4.40;;;;;;;;;;5011764;28;20049;-82
2023/10/20 02:10:31;;;;;;;8.88;4.13;;;;;;;;;;5034365;28;20045;-82
2023/10/20 02:12:58;;;;;;;12.00;5.85;;;;;;;;;;5013588;28;20057;-82
2023/10/20 02:15:25;;;;;;;5.10;4.57;;;;;;;;;;5033159;28;20041;-82
2023/10/20 02:17:54;;;;;;;5.05;4.38;;;;;;;;;;5036116;28;20049;-82
2023/10/20 02:20:25;;;;;;;5.60;4.68;;;;;;;;;;5015513;28;20482;-82
2023/10/20 02:22:53;;;;;;;6.03;5.13;;;;;;;;;;5026908;28;20053;-82
2023/10/20 02:25:23;;;;;;;6.47;5.07;;;;;;;;;;5019318;28;20041;-82
2023/10/20 02:27:50;;;;;;;6.93;5.00;;;;;;;;;;5025538;28;20053;-82
2023/10/20 02:30:18;;;;;;;8.52;5.18;;;;;;;;;;5023970;28;20057;-82
2023/10/20 02:32:45;;;;;;;4.18;3.78;;;;;;;;;;5023797;28;20053;-82
2023/10/20 02:35:14;;;;;;;5.40;4.90;;;;;;;;;;5044618;28;20053;-82
2023/10/20 02:37:41;;;;;;;5.80;5.20;;;;;;;;;;5029137;28;20055;-82
2023/10/20 02:40:10;;;;;;;6.40;4.88;;;;;;;;;;5012258;28;20061;-82
2023/10/20 02:42:37;;;;;;;8.60;5.18;;;;;;;;;;5014308;28;20054;-82
2023/10/20 02:45:10;;;;;;;4.97;4.43;;;;;;;;;;5030987;28;20046;-82
2023/10/20 02:47:40;;;;;;;5.40;4.88;;;;;;;;;;5028233;28;20046;-82
2023/10/20 02:50:08;;;;;;;8.02;5.15;;;;;;;;;;5010431;28;20076;-82
2023/10/20 02:52:37;;;;;;;9.20;4.88;;;;;;;;;;5016485;28;20045;-82
2023/10/20 02:55:05;;;;;;;6.07;5.18;;;;;;;;;;5025739;28;20046;-82
2023/10/20 02:57:36;;;;;;;5.05;4.55;;;;;;;;;;5024083;28;20424;-82
2023/10/20 03:00:09;;;;;;;5.20;4.75;;;;;;;;;;5025501;28;20068;-82
2023/10/20 03:02:39;;;;;;;4.40;3.78;;;;;;;;;;5022576;28;20053;-82
2023/10/20 03:05:07;;;;;;;8.23;4.25;;;;;;;;;;4998302;28;20049;-82
2023/10/20 03:07:35;;;;;;;4.47;4.07;;;;;;;;;;5011924;28;20053;-82
2023/10/20 03:10:04;;;;;;;4.43;4.03;;;;;;;;;;5025951;28;20045;-82
2023/10/20 03:12:31;;;;;;;5.15;4.32;;;;;;;;;;5025759;28;20384;-82
2023/10/20 03:14:58;;;;;;;4.18;3.72;;;;;;;;;;5031320;28;20048;-82
2023/10/20 03:17:29;;;;;;;5.20;4.70;;;;;;;;;;5023842;28;20051;-82
2023/10/20 03:19:56;;;;;;;7.43;3.85;;;;;;;;;;5010800;28;20054;-82
2023/10/20 03:22:25;;;;;;;6.32;4.57;;;;;;;;;;5019791;28;20048;-82
2023/10/20 03:24:54;;;;;;;4.32;3.92;;;;;;;;;;5030058;28;20060;-82
2023/10/20 03:27:22;;;;;;;7.00;4.00;;;;;;;;;;5028835;28;20064;-82
2023/10/20 03:29:52;;;;;;;5.70;4.57;;;;;;;;;;5029082;28;20058;-82
2023/10/20 03:32:19;;;;;;;4.95;4.53;;;;;;;;;;5035691;28;20048;-82
2023/10/20 03:34:46;;;;;;;5.45;4.22;;;;;;;;;;5028291;28;20041;-82
2023/10/20 03:37:14;;;;;;;4.18;3.75;;;;;;;;;;5028773;28;20399;-82
2023/10/20 03:39:44;;;;;;;5.28;4.20;;;;;;;;;;5037220;28;20046;-82
2023/10/20 03:42:13;;;;;;;6.35;4.60;;;;;;;;;;5031037;28;20054;-82
2023/10/20 03:44:43;;;;;;;6.75;3.97;;;;;;;;;;5025029;28;20057;-82
2023/10/20 03:47:13;;;;;;;7.60;4.80;;;;;;;;;;5029543;28;20071;-82
2023/10/20 03:49:44;;;;;;;4.97;4.43;;;;;;;;;;5029712;28;20057;-82
2023/10/20 03:52:13;;;;;;;7.22;5.05;;;;;;;;;;5010616;28;20057;-82
2023/10/20 03:54:46;;;;;;;5.57;4.97;;;;;;;;;;5028288;28;20064;-82
2023/10/20 03:57:15;;;;;;;4.93;4.28;;;;;;;;;;5025834;28;20054;-81
2023/10/20 03:59:46;;;;;;;9.35;5.65;;;;;;;;;;5016779;28;20050;-82
2023/10/20 04:02:13;;;;;;;9.18;5.78;;;;;;;;;;5037519;28;20046;-82
2023/10/20 04:04:42;;;;;;;5.25;4.28;;;;;;;;;;5012919;28;20052;-82
2023/10/20 04:07:12;;;;;;;4.88;4.43;;;;;;;;;;5034075;28;20408;-81
2023/10/20 04:09:39;;;;;;;6.05;4.57;;;;;;;;;;5016013;28;20051;-81
2023/10/20 04:12:09;;;;;;;6.05;5.45;;;;;;;;;;5027406;28;20423;-82
2023/10/20 04:14:37;;;;;;;6.32;4.43;;;;;;;;;;5032030;28;20049;-82
2023/10/20 04:17:05;;;;;;;4.53;3.83;;;;;;;;;;5017052;28;20053;-82
2023/10/20 04:19:35;;;;;;;5.75;4.75;;;;;;;;;;5028529;28;20048;-82
2023/10/20 04:22:04;;;;;;;5.10;4.60;;;;;;;;;;5026727;28;20061;-82
2023/10/20 04:24:34;;;;;;;5.43;4.90;;;;;;;;;;5015892;28;20064;-82
2023/10/20 04:27:04;;;;;;;7.15;5.35;;;;;;;;;;5024401;28;20050;-81
2023/10/20 04:29:35;;;;;;;5.63;4.45;;;;;;;;;;5029271;28;20547;-82
2023/10/20 04:49:42;;;;;;;9.32;6.20;;;;;;;;;;4983527;28;20054;-82
2023/10/20 04:52:06;;;;;;;8.77;7.18;;;;;;;;;;5032908;28;20056;-81
2023/10/20 04:54:50;;;;;;;9.60;7.72;;;;;;;;;;5037626;28;20045;-82
2023/10/20 04:57:40;;;;;;;6.88;5.50;;;;;;;;;;5037940;28;20088;-81
2023/10/20 05:00:35;;;;;;;8.07;4.85;;;;;;;;;;5045995;28;20048;-82
2023/10/20 05:03:15;;;;;;;5.88;5.25;;;;;;;;;;5049093;28;20053;-81
2023/10/20 05:05:44;;;;;;;5.78;5.15;;;;;;;;;;5024831;28;20061;-81
2023/10/20 05:08:18;;;;;;;5.78;5.13;;;;;;;;;;5040042;28;20058;-81
2023/10/20 05:10:49;;;;;;;7.68;6.40;;;;;;;;;;5029431;28;20049;-82
2023/10/20 05:13:17;;;;;;;6.03;5.43;;;;;;;;;;5021602;28;20590;-81
2023/10/20 05:15:45;;;;;;;7.70;6.78;;;;;;;;;;5032410;28;20033;-81
2023/10/20 05:18:15;;;;;;;7.90;5.50;;;;;;;;;;5028938;28;20342;-82
2023/10/20 05:20:43;;;;;;;8.63;5.40;;;;;;;;;;5031632;28;20046;-81
2023/10/20 05:23:15;;;;;;;7.60;6.15;;;;;;;;;;5016020;28;20060;-81
2023/10/20 05:25:48;;;;;;;7.88;6.03;;;;;;;;;;5036170;28;20050;-82
2023/10/20 05:28:20;;;;;;;6.15;5.55;;;;;;;;;;5019044;28;20049;-82
2023/10/20 05:30:50;;;;;;;9.40;5.63;;;;;;;;;;5027675;28;20038;-81
2023/10/20 05:33:20;;;;;;;7.90;6.32;;;;;;;;;;5023375;28;20061;-82
2023/10/20 05:35:49;;;;;;;7.15;6.22;;;;;;;;;;5029592;28;20049;-83
2023/10/20 05:38:19;;;;;;;6.35;5.72;;;;;;;;;;5025877;28;20064;-83
2023/10/20 05:40:56;;;;;;;7.35;6.70;;;;;;;;;;5025552;28;20053;-83
2023/10/20 05:43:24;;;;;;;7.10;6.05;;;;;;;;;;5021183;28;20038;-82
2023/10/20 05:45:52;;;;;;;7.90;7.10;;;;;;;;;;5017004;28;20061;-82
2023/10/20 05:48:20;;;;;;;6.97;5.85;;;;;;;;;;5021313;28;20411;-83
2023/10/20 05:50:47;;;;;;;7.28;6.00;;;;;;;;;;5009133;28;20407;-83
2023/10/20 05:53:15;;;;;;;6.40;5.72;;;;;;;;;;5045764;28;20049;-82
2023/10/20 05:55:45;;;;;;;8.57;6.30;;;;;;;;;;5037423;28;20053;-83
2023/10/20 05:58:13;;;;;;;7.60;6.63;;;;;;;;;;5042763;28;20045;-83
2023/10/20 06:00:42;;;;;;;9.73;7.28;;;;;;;;;;5034880;28;20053;-82
2023/10/20 06:03:10;;;;;;;8.75;7.85;;;;;;;;;;5030691;28;20503;-82
2023/10/20 06:05:38;;;;;;;8.98;7.97;;;;;;;;;;5019178;28;20052;-82
2023/10/20 06:08:08;;;;;;;7.60;6.60;;;;;;;;;;5038951;28;20408;-83
2023/10/20 06:10:37;;;;;;;7.25;6.55;;;;;;;;;;5050181;28;20046;-82
2023/10/20 06:13:09;;;;;;;7.95;7.05;;;;;;;;;;5052462;28;20046;-82
2023/10/20 06:15:39;;;;;;;7.95;7.03;;;;;;;;;;5056590;28;20029;-83
2023/10/20 06:18:07;;;;;;;8.05;6.70;;;;;;;;;;5051151;28;20048;-83
2023/10/20 06:20:39;;;;;;;10.20;7.72;;;;;;;;;;5037653;28;20039;-82
2023/10/20 06:23:09;;;;;;;9.23;7.72;;;;;;;;;;5040761;28;20052;-82
2023/10/20 06:25:37;;;;;;;8.27;6.90;;;;;;;;;;5024249;28;20053;-83
2023/10/20 06:28:06;;;;;;;10.23;8.43;;;;;;;;;;5048606;28;20043;-83
2023/10/20 06:30:42;;;;;;;7.35;6.65;;;;;;;;;;5037363;28;20050;-82
2023/10/20 06:33:16;;;;;;;7.40;6.68;;;;;;;;;;5030729;28;20049;-82
2023/10/20 06:35:59;;;;;;;9.02;7.82;;;;;;;;;;5043426;28;20049;-82
2023/10/20 06:38:32;;;;;;;10.63;6.30;;;;;;;;;;5044846;28;20058;-82
2023/10/20 06:41:00;;;;;;;;;;;;;;;;;;5054825;28;20053;-82
2023/10/20 06:43:27;;;;;;;5.82;5.20;;;;;;;;;;5043071;28;19925;-83
2023/10/20 06:45:59;;;;;;;6.78;5.22;;;;;;;;;;5030035;28;20064;-83
2023/10/20 06:48:29;;;;;;;10.95;6.05;;;;;;;;;;5026304;28;20091;-83
2023/10/20 06:50:57;;;;;;;4.57;4.07;;;;;;;;;;5018094;28;20067;-83
2023/10/20 06:53:26;;;;;;;9.10;4.60;;;;;;;;;;5059527;28;20057;-83
2023/10/20 06:56:00;;;;;;;9.43;4.70;;;;;;;;;;5064166;28;20053;-83
2023/10/20 06:58:27;;;;;;;6.22;5.32;;;;;;;;;;5051794;28;20059;-83
2023/10/20 07:00:54;;;;;;;4.00;3.33;;;;;;;;;;5015261;28;20058;-84
2023/10/20 07:03:23;;;;;;;5.53;3.85;;;;;;;;;;5028867;28;20057;-84
2023/10/20 07:05:51;;;;;;;4.43;3.72;;;;;;;;;;5036526;22;20060;-82
2023/10/20 07:08:20;;;;;;;3.70;3.05;;;;;;;;;;5035598;28;20491;-82
2023/10/20 07:10:50;;;;;;;4.43;3.05;;;;;;;;;;5022812;28;20045;-82
2023/10/20 07:13:18;;;;;;;4.10;3.42;;;;;;;;;;5010258;28;20054;-82
2023/10/20 07:15:52;;;;;;;4.90;3.20;;;;;;;;;;4998967;28;20435;-83
2023/10/20 07:18:23;;;;;;;5.13;3.97;;;;;;;;;;5014960;28;20050;-82
2023/10/20 07:20:50;;;;;;;4.20;3.55;;;;;;;;;;4999040;28;20903;-82
2023/10/20 07:23:18;;;;;;;4.10;3.47;;;;;;;;;;4998518;28;20049;-82
2023/10/20 07:25:49;;;;;;;3.88;3.42;;;;;;;;;;5007975;28;20069;-82
2023/10/20 07:28:16;;;;;;;5.38;4.05;;;;;;;;;;5016376;28;20046;-82
2023/10/20 07:30:46;;;;;;;5.40;4.05;;;;;;;;;;5009789;28;20070;-82
2023/10/20 07:33:14;;;;;;;3.90;3.55;;;;;;;;;;5015283;28;20050;-82
2023/10/20 07:35:43;;;;;;;3.90;3.50;;;;;;;;;;4996746;28;20068;-82
2023/10/20 07:38:12;;;;;;;3.95;3.55;;;;;;;;;;5015233;28;20045;-83
2023/10/20 07:40:42;;;;;;;4.65;3.65;;;;;;;;;;5012414;28;20050;-82
2023/10/20 07:43:11;;;;;;;5.70;4.00;;;;;;;;;;5013819;28;20046;-83
2023/10/20 07:45:41;;;;;;;4.53;3.53;;;;;;;;;;5011441;28;20528;-82
2023/10/20 07:48:10;;;;;;;5.03;3.58;;;;;;;;;;5013665;28;20046;-82
2023/10/20 07:50:37;;;;;;;4.68;3.58;;;;;;;;;;4996006;28;20666;-82
2023/10/20 07:53:08;;;;;;;6.05;3.67;;;;;;;;;;5013294;28;20161;-82
2023/10/20 07:55:36;;;;;;;4.03;3.60;;;;;;;;;;5014364;28;20057;-81
2023/10/20 07:58:04;;;;;;;5.55;4.38;;;;;;;;;;4999525;28;20042;-83
2023/10/20 08:00:31;;;;;;;5.03;4.53;;;;;;;;;;5014907;28;20041;-81
2023/10/20 08:03:01;;;;;;;6.22;4.93;;;;;;;;;;5012697;28;20050;-81
2023/10/20 08:05:31;;;;;;;6.13;5.55;;;;;;;;;;5024363;28;20042;-82
2023/10/20 08:08:01;;;;;;;5.55;4.30;;;;;;;;;;5012032;28;20057;-82
2023/10/20 08:10:32;;;;;;;4.25;3.83;;;;;;;;;;5006442;28;20420;-82
2023/10/20 08:13:01;;;;;;;6.57;5.47;;;;;;;;;;5013314;28;20058;-82
2023/10/20 08:15:36;;;;;;;6.25;5.10;;;;;;;;;;4999189;28;20056;-82
2023/10/20 08:18:04;;;;;;;5.50;4.63;;;;;;;;;;4996729;28;20046;-82
2023/10/20 08:20:31;;;;;;;5.93;4.57;;;;;;;;;;5020917;28;20046;-82
2023/10/20 08:23:00;;;;;;;5.75;4.70;;;;;;;;;;5013111;28;20057;-82
2023/10/20 08:25:29;;;;;;;6.45;5.80;;;;;;;;;;5031701;28;20045;-81
2023/10/20 08:28:00;;;;;;;6.93;4.95;;;;;;;;;;5011953;28;20046;-82
2023/10/20 08:30:30;;;;;;;6.05;5.25;;;;;;;;;;4991977;28;20054;-82
2023/10/20 08:33:00;;;;;;;5.88;5.35;;;;;;;;;;5014964;28;20050;-82
2023/10/20 08:35:27;;;;;;;7.63;6.88;;;;;;;;;;5001048;28;20053;-82
2023/10/20 08:37:54;;;;;;;8.52;5.60;;;;;;;;;;4998778;28;20054;-82
2023/10/20 08:40:21;;;;;;;8.77;5.93;;;;;;;;;;5013091;28;20054;-83
2023/10/20 08:42:51;;;;;;;6.45;5.85;;;;;;;;;;4995372;28;20050;-82
2023/10/20 08:45:21;;;;;;;8.18;6.35;;;;;;;;;;5019614;28;20388;-82
2023/10/20 08:47:51;;;;;;;5.90;5.10;;;;;;;;;;5016134;28;20098;-82
2023/10/20 08:50:22;;;;;;;9.27;5.72;;;;;;;;;;5003118;28;20312;-82
2023/10/20 08:52:52;;;;;;;7.63;5.78;;;;;;;;;;5015914;28;20046;-82
2023/10/20 08:55:22;;;;;;;7.25;6.18;;;;;;;;;;5004349;28;20073;-82
2023/10/20 08:57:54;;;;;;;6.57;5.50;;;;;;;;;;5021126;28;20407;-82
2023/10/20 09:00:23;;;;;;;8.88;5.90;;;;;;;;;;5031187;28;20058;-82
2023/10/20 09:02:58;;;;;;;7.53;5.18;;;;;;;;;;5014437;28;20060;-82
2023/10/20 09:05:26;;;;;;;8.20;6.53;;;;;;;;;;5017817;28;20038;-82
2023/10/20 09:07:59;;;;;;;7.70;7.00;;;;;;;;;;4996682;28;20053;-83
2023/10/20 09:10:29;;;;;;;6.97;6.13;;;;;;;;;;5020208;28;20069;-82
2023/10/20 09:12:56;;;;;;;7.72;5.47;;;;;;;;;;5014631;28;20053;-82
2023/10/20 09:15:27;;;;;;;9.80;6.22;;;;;;;;;;5016461;28;20055;-82
2023/10/20 09:17:54;;;;;;;7.97;6.97;;;;;;;;;;5014611;28;20046;-82
2023/10/20 09:20:23;;;;;;;7.40;5.97;;;;;;;;;;5015784;28;20054;-82
2023/10/20 09:22:53;;;;;;;7.65;6.35;;;;;;;;;;5017476;28;20069;-82
2023/10/20 09:25:20;;;;;;;7.30;6.00;;;;;;;;;;5002492;28;20061;-82
2023/10/20 09:27:50;;;;;;;7.45;6.57;;;;;;;;;;4998501;28;20053;-82
2023/10/20 09:30:21;;;;;;;8.23;6.90;;;;;;;;;;5017609;28;20683;-82
2023/10/20 09:32:52;;;;;;;7.88;7.05;;;;;;;;;;5032411;28;20049;-82
2023/10/20 09:35:20;;;;;;;9.02;6.90;;;;;;;;;;5016878;28;20058;-82
2023/10/20 09:37:52;;;;;;;8.35;6.38;;;;;;;;;;4996319;28;20436;-82
2023/10/20 09:40:21;;;;;;;7.72;5.20;;;;;;;;;;5017602;28;20058;-81
2023/10/20 09:43:03;;;;;;;5.70;4.57;;;;;;;;;;5014219;28;20523;-81
2023/10/20 09:45:33;;;;;;;7.07;5.85;;;;;;;;;;5017013;28;20407;-82
2023/10/20 09:48:08;;;;;;;8.90;5.82;;;;;;;;;;5018811;28;20046;-82
2023/10/20 09:50:38;;;;;;;5.25;4.75;;;;;;;;;;5010288;28;20061;-81
2023/10/20 09:53:09;;;;;;;5.07;4.57;;;;;;;;;;4994980;28;20069;-81
2023/10/20 09:55:37;;;;;;;7.68;5.53;;;;;;;;;;5017262;28;20061;-81
2023/10/20 09:58:04;;;;;;;6.97;6.00;;;;;;;;;;5018862;28;20488;-81
2023/10/20 10:00:35;;;;;;;5.63;4.95;;;;;;;;;;5001445;28;20042;-81
2023/10/20 10:03:05;;;;;;;6.55;5.95;;;;;;;;;;4998360;28;20066;-81
2023/10/20 10:05:33;;;;;;;4.88;4.40;;;;;;;;;;5030181;28;20412;-81
2023/10/20 10:08:04;;;;;;;5.95;5.40;;;;;;;;;;5001177;28;20057;-81
2023/10/20 10:10:34;;;;;;;5.43;4.93;;;;;;;;;;5001029;28;20050;-81
2023/10/20 10:13:05;;;;;;;5.68;5.03;;;;;;;;;;5016037;28;20038;-81
2023/10/20 10:15:37;;;;;;;5.85;5.28;;;;;;;;;;5016540;28;20538;-82
2023/10/20 10:18:11;;;;;;;5.97;5.07;;;;;;;;;;5012896;28;20054;-81
2023/10/20 10:20:44;;;;;;;6.57;5.68;;;;;;;;;;5015278;28;20530;-82
2023/10/20 10:23:14;;;;;;;6.72;6.00;;;;;;;;;;4994360;28;20069;-81
2023/10/20 10:25:45;;;;;;;7.95;5.43;;;;;;;;;;5010786;28;20042;-81
2023/10/20 10:28:13;;;;;;;6.13;5.00;;;;;;;;;;4999683;28;20060;-81
2023/10/20 10:30:43;;;;;;;5.95;5.35;;;;;;;;;;4998230;28;20050;-81
2023/10/20 10:33:14;;;;;;;5.75;5.03;;;;;;;;;;4999968;28;20415;-81
2023/10/20 10:35:41;;;;;;;6.88;6.20;;;;;;;;;;4999989;28;20049;-81
2023/10/20 10:38:19;;;;;;;11.73;5.50;;;;;;;;;;4996526;28;20057;-81
2023/10/20 10:40:52;;;;;;;11.63;5.95;;;;;;;;;;5029612;28;20056;-81
2023/10/20 10:43:24;;;;;;;6.35;5.13;;;;;;;;;;4993594;28;20555;-81
2023/10/20 10:45:52;;;;;;;5.68;5.10;;;;;;;;;;5015220;28;20050;-81
2023/10/20 10:48:27;;;;;;;5.60;5.10;;;;;;;;;;5007647;28;20049;-81
2023/10/20 10:50:54;;;;;;;6.22;5.20;;;;;;;;;;4994923;28;20057;-81
2023/10/20 10:53:26;;;;;;;6.40;5.75;;;;;;;;;;4993070;28;20041;-81
2023/10/20 10:55:54;;;;;;;8.15;5.75;;;;;;;;;;5015046;28;20384;-81
2023/10/20 10:58:23;;;;;;;5.28;4.78;;;;;;;;;;5013146;28;20057;-82
2023/10/20 11:00:54;;;;;;;7.65;6.68;;;;;;;;;;4994470;28;20060;-82
2023/10/20 11:03:25;;;;;;;6.85;6.15;;;;;;;;;;5015894;28;20049;-82
2023/10/20 11:05:58;;;;;;;5.78;5.22;;;;;;;;;;5017414;28;20065;-82
2023/10/20 11:08:29;;;;;;;6.68;5.97;;;;;;;;;;4993811;28;20413;-82
2023/10/20 11:10:59;;;;;;;5.82;5.22;;;;;;;;;;5012798;28;20057;-81
2023/10/20 11:13:28;;;;;;;6.93;5.78;;;;;;;;;;5007886;28;20057;-81
2023/10/20 11:15:57;;;;;;;8.38;6.00;;;;;;;;;;4997489;28;20054;-81
2023/10/20 11:18:26;;;;;;;8.02;6.45;;;;;;;;;;4998418;28;20061;-81
2023/10/20 11:20:56;;;;;;;6.25;5.65;;;;;;;;;;5012074;28;20060;-81
2023/10/20 11:23:28;;;;;;;7.72;6.43;;;;;;;;;;5012332;28;20050;-81
2023/10/20 11:25:58;;;;;;;6.30;5.70;;;;;;;;;;5016982;28;20064;-81
2023/10/20 11:28:26;;;;;;;7.13;6.03;;;;;;;;;;4995572;28;20054;-81
2023/10/20 11:30:53;;;;;;;6.60;5.63;;;;;;;;;;5027597;28;20054;-81
2023/10/20 11:33:21;;;;;;;6.78;6.07;;;;;;;;;;4996177;28;20058;-82
2023/10/20 11:35:53;;;;;;;6.88;5.72;;;;;;;;;;4999792;28;20046;-82
2023/10/20 11:38:21;;;;;;;7.30;6.25;;;;;;;;;;5006857;28;20046;-82
2023/10/20 11:40:49;;;;;;;5.13;4.63;;;;;;;;;;5015205;28;20076;-82
2023/10/20 11:43:21;;;;;;;7.45;5.63;;;;;;;;;;5007514;28;20049;-82
2023/10/20 11:45:50;;;;;;;5.60;4.85;;;;;;;;;;4998577;28;20496;-82
2023/10/20 11:48:18;;;;;;;7.47;4.13;;;;;;;;;;4993828;28;20579;-82
2023/10/20 11:50:45;;;;;;;4.05;3.35;;;;;;;;;;4997083;28;20506;-82
2023/10/20 11:53:16;;;;;;;3.75;3.42;;;;;;;;;;5013120;28;20056;-82
2023/10/20 11:55:46;;;;;;;3.03;2.78;;;;;;;;;;4998348;28;20046;-82
2023/10/20 11:58:17;;;;;;;4.00;3.35;;;;;;;;;;4995592;28;20057;-82
2023/10/20 12:00:44;;;;;;;3.38;2.85;;;;;;;;;;5014492;28;20050;-82
2023/10/20 12:03:11;;;;;;;5.05;2.47;;;;;;;;;;5012380;28;20486;-82
2023/10/20 12:05:39;;;;;;;3.33;3.03;;;;;;;;;;4998533;28;20050;-82
2023/10/20 12:08:06;;;;;;;3.58;3.28;;;;;;;;;;5013071;28;20057;-82
2023/10/20 12:10:35;;;;;;;2.95;2.53;;;;;;;;;;5012788;28;20046;-82
2023/10/20 12:13:05;;;;;;;2.83;2.55;;;;;;;;;;5008567;28;20057;-82
2023/10/20 12:15:36;;;;;;;2.60;2.33;;;;;;;;;;4998109;28;20046;-82
2023/10/20 12:18:03;;;;;;;2.50;2.25;;;;;;;;;;5026089;28;20041;-82
2023/10/20 12:20:33;;;;;;;2.53;2.33;;;;;;;;;;5018406;28;20048;-82
2023/10/20 12:23:05;;;;;;;3.45;2.20;;;;;;;;;;4997251;28;20061;-82
2023/10/20 12:25:36;;;;;;;5.75;2.95;;;;;;;;;;5010458;28;20057;-82
2023/10/20 12:28:06;;;;;;;2.80;2.38;;;;;;;;;;5016155;28;20049;-82
2023/10/20 12:30:33;;;;;;;3.17;2.47;;;;;;;;;;5000930;28;20049;-82
2023/10/20 12:33:01;;;;;;;3.10;2.80;;;;;;;;;;5018966;28;20045;-82
2023/10/20 12:35:28;;;;;;;5.30;2.70;;;;;;;;;;5008339;28;20503;-82
2023/10/20 12:37:55;;;;;;;2.58;2.20;;;;;;;;;;4993118;28;20058;-82
2023/10/20 12:40:22;;;;;;;1.95;1.67;;;;;;;;;;5014276;28;20050;-83
2023/10/20 12:42:51;;;;;;;3.53;1.95;;;;;;;;;;4999269;28;20065;-82
2023/10/20 12:45:21;;;;;;;2.45;2.25;;;;;;;;;;5017345;28;20053;-82
2023/10/20 12:47:48;;;;;;;2.35;2.15;;;;;;;;;;5019318;28;20045;-82
2023/10/20 12:50:15;;;;;;;2.22;1.70;;;;;;;;;;5017466;28;20061;-82
2023/10/20 12:52:47;;;;;;;3.10;1.30;;;;;;;;;;5000346;28;20061;-83
2023/10/20 12:55:14;;;;;;;2.30;1.35;;;;;;;;;;5015328;28;20056;-82
2023/10/20 12:57:45;;;;;;;1.83;1.05;;;;;;;;;;5016801;28;20034;-82
2023/10/20 13:00:19;;;;;;;1.17;1.02;;;;;;;;;;5017160;28;20049;-83
2023/10/20 13:02:49;;;;;;;12.13;0.80;;;;;;;;;;5015535;28;20053;-82
2023/10/20 13:05:19;;;;;;;0.80;0.60;;;;;;;;;;5030507;28;20046;-81
2023/10/20 13:07:50;;;;;;;0.68;0.57;;;;;;;;;;5012902;28;20053;-82
2023/10/20 13:10:20;;;;;;;1.02;0.65;;;;;;;;;;5012917;28;20050;-81
2023/10/20 13:12:48;;;;;;;1.42;0.82;;;;;;;;;;5015215;28;20050;-82
2023/10/20 13:15:15;;;;;;;0.43;0.35;;;;;;;;;;5017705;28;20059;-82
2023/10/20 13:17:43;;;;;;;1.40;0.75;;;;;;;;;;5021925;28;20053;-82
2023/10/20 13:20:13;;;;;;;0.65;0.50;;;;;;;;;;5022875;28;20060;-82
2023/10/20 13:22:43;;;;;;;2.47;0.70;;;;;;;;;;5010385;28;20554;-82
2023/10/20 13:25:10;;;;;;;0.68;0.50;;;;;;;;;;5022727;28;20050;-83
2023/10/20 13:27:40;;;;;;;0.88;0.52;;;;;;;;;;5002532;28;20062;-81
2023/10/20 13:30:13;;;;;;;0.50;0.50;;;;;;;;;;5015903;28;20042;-82
2023/10/20 13:32:44;;;;;;;1.17;0.55;;;;;;;;;;5015910;28;20054;-81
2023/10/20 13:35:11;;;;;;;0.57;0.50;;;;;;;;;;5006917;28;20050;-81
2023/10/20 13:37:39;;;;;;;1.88;0.77;;;;;;;;;;5001903;28;20058;-82
2023/10/20 13:40:11;;;;;;;;;;;;;;;;;;5016838;28;20049;-82
2023/10/20 13:42:41;;;;;;;2.63;0.32;;;;;;;;;;5017363;28;19921;-81
2023/10/20 13:45:09;;;;;;;1.00;0.68;;;;;;;;;;5005450;28;20050;-82
2023/10/20 13:47:36;;;;;;;0.98;0.52;;;;;;;;;;5022677;28;20587;-81
2023/10/20 13:50:06;;;;;;;0.70;0.68;;;;;;;;;;5022084;28;20054;-81
2023/10/20 13:52:33;;;;;;;0.60;0.43;;;;;;;;;;5003546;28;20522;-81
2023/10/20 13:55:02;;;;;;;0.55;0.50;;;;;;;;;;5020561;28;20571;-81
2023/10/20 13:57:30;;;;;;;0.70;0.40;;;;;;;;;;4998604;28;20050;-81
2023/10/20 13:59:59;;;;;;;1.95;0.70;;;;;;;;;;5020718;28;20038;-81
2023/10/20 14:02:31;;;;;;;0.80;0.50;;;;;;;;;;5020786;28;20050;-81
2023/10/20 14:05:01;;;;;;;0.68;0.52;;;;;;;;;;5021273;28;20077;-81
2023/10/20 14:07:32;;;;;;;0.70;0.50;;;;;;;;;;5038703;28;20046;-81
2023/10/20 14:09:59;;;;;;;1.08;0.85;;;;;;;;;;5019330;28;20050;-81
2023/10/20 14:12:27;;;;;;;1.30;0.75;;;;;;;;;;5021749;28;20050;-81
2023/10/20 14:14:55;;;;;;;1.17;0.70;;;;;;;;;;5006425;28;20132;-81
2023/10/20 14:17:24;;;;;;;0.55;0.47;;;;;;;;;;5022623;28;20046;-81
2023/10/20 14:19:54;;;;;;;2.30;0.70;;;;;;;;;;5002525;28;20054;-81
2023/10/20 14:22:21;;;;;;;2.15;0.60;;;;;;;;;;5019081;28;20061;-81
2023/10/20 14:24:50;;;;;;;0.60;0.60;;;;;;;;;;5001930;28;20053;-81
2023/10/20 14:27:17;;;;;;;1.25;0.55;;;;;;;;;;5005338;28;20064;-81
2023/10/20 14:29:48;;;;;;;0.50;0.50;;;;;;;;;;5021115;28;20046;-81
2023/10/20 14:32:15;;;;;;;1.10;0.70;;;;;;;;;;5019197;28;20677;-81
2023/10/20 14:34:42;;;;;;;0.90;0.52;;;;;;;;;;5016409;28;20056;-81
2023/10/20 14:37:10;;;;;;;0.88;0.60;;;;;;;;;;5012050;28;20050;-81
2023/10/20 14:39:39;;;;;;;1.02;0.93;;;;;;;;;;5005149;28;20057;-81
2023/10/20 14:42:08;;;;;;;0.50;0.50;;;;;;;;;;5028937;28;20049;-81
2023/10/20 14:44:37;;;;;;;0.60;0.60;;;;;;;;;;5030444;28;20054;-81
2023/10/20 14:47:04;;;;;;;1.02;0.90;;;;;;;;;;5002229;28;20412;-81
2023/10/20 14:49:34;;;;;;;1.17;0.50;;;;;;;;;;5018161;28;20049;-81
2023/10/20 14:52:01;;;;;;;0.70;0.60;;;;;;;;;;5001230;28;20138;-81
2023/10/20 14:54:31;;;;;;;1.55;0.50;;;;;;;;;;5019070;28;20064;-81
2023/10/20 14:57:01;;;;;;;1.33;0.70;;;;;;;;;;5015208;28;20053;-81
2023/10/20 14:59:30;;;;;;;0.70;0.68;;;;;;;;;;4992302;28;20050;-81
2023/10/20 15:01:59;;;;;;;0.88;0.75;;;;;;;;;;4997433;28;20042;-82
2023/10/20 15:04:26;;;;;;;0.70;0.57;;;;;;;;;;5023366;28;20041;-82
2023/10/20 15:06:54;;;;;;;0.63;0.50;;;;;;;;;;5025095;28;20042;-82
2023/10/20 15:09:21;;;;;;;1.77;0.80;;;;;;;;;;5026998;28;20056;-81
2023/10/20 15:11:53;;;;;;;1.58;0.82;;;;;;;;;;5009044;28;20056;-81
2023/10/20 15:14:20;;;;;;;1.10;0.82;;;;;;;;;;5009984;28;20053;-81